createdAt,value
2023-11-24T00:02:17.137Z,18.27
2023-11-24T00:07:28.314Z,17.75
2023-11-24T00:12:33.360Z,21.52
2023-11-24T00:17:39.307Z,20.58
2023-11-24T00:22:45.474Z,23.45
2023-11-24T00:27:51.050Z,22.67
2023-11-24T00:32:55.830Z,23.20
2023-11-24T00:38:01.357Z,22.13
2023-11-24T00:43:07.269Z,19.58
2023-11-24T00:48:11.809Z,16.60
2023-11-24T00:53:17.761Z,18.67
2023-11-24T00:58:21.887Z,22.52
2023-11-24T01:03:27.619Z,20.70
2023-11-24T01:08:33.311Z,21.65
2023-11-24T01:13:40.188Z,16.27
2023-11-24T01:18:44.573Z,17.30
2023-11-24T01:23:52.587Z,23.45
2023-11-24T01:28:57.893Z,19.63
2023-11-24T01:34:02.401Z,19.73
2023-11-24T01:39:11.140Z,18.33
2023-11-24T01:44:15.297Z,18.92
2023-11-24T01:49:19.459Z,20.42
2023-11-24T01:54:27.742Z,23.98
2023-11-24T01:59:32.023Z,25.42
2023-11-24T02:04:36.078Z,22.85
2023-11-24T02:09:43.540Z,22.35
2023-11-24T02:14:47.820Z,21.48
2023-11-24T02:19:53.668Z,22.70
2023-11-24T02:24:59.501Z,22.33
2023-11-24T02:30:04.913Z,21.30
2023-11-24T02:35:11.227Z,21.60
2023-11-24T02:40:17.412Z,21.27
2023-11-24T02:45:21.914Z,18.15
2023-11-24T02:50:26.856Z,17.85
2023-11-24T02:55:32.302Z,16.35
2023-11-24T03:00:37.371Z,16.85
2023-11-24T03:05:41.608Z,16.67
2023-11-24T03:10:47.228Z,16.52
2023-11-24T03:15:51.362Z,17.60
2023-11-24T03:20:55.445Z,19.17
2023-11-24T03:26:03.758Z,19.13
2023-11-24T03:31:08.145Z,19.87
2023-11-24T03:36:31.179Z,19.55
2023-11-24T03:41:37.516Z,22.20
2023-11-24T03:46:42.076Z,19.27
2023-11-24T03:51:46.125Z,18.80
2023-11-24T03:56:51.660Z,20.70
2023-11-24T04:01:55.801Z,20.02
2023-11-24T04:07:01.452Z,20.10
2023-11-24T04:12:07.468Z,18.88
2023-11-24T04:17:12.025Z,20.60
2023-11-24T04:22:16.984Z,13.80
2023-11-24T04:27:22.628Z,14.00
2023-11-24T04:32:26.878Z,12.85
2023-11-24T04:37:30.836Z,14.88
2023-11-24T04:42:36.325Z,18.50
2023-11-24T04:47:41.240Z,24.15
2023-11-24T04:52:45.349Z,15.10
2023-11-24T04:57:52.003Z,15.32
2023-11-24T05:02:55.997Z,17.90
2023-11-24T05:08:00.742Z,14.30
2023-11-24T05:13:06.357Z,15.07
2023-11-24T05:18:10.373Z,44.50
2023-11-24T05:23:15.635Z,36.35
2023-11-24T05:28:21.098Z,33.80
2023-11-24T05:33:25.214Z,40.25
2023-11-24T05:38:29.446Z,44.30
2023-11-24T05:43:35.380Z,43.78
2023-11-24T05:48:39.975Z,93.45
2023-11-24T05:53:44.254Z,61.65
2023-11-24T05:58:52.556Z,38.20
2023-11-24T06:03:56.694Z,61.22
2023-11-24T06:09:01.116Z,76.65
2023-11-24T06:14:06.646Z,69.00
2023-11-24T06:19:10.797Z,47.20
2023-11-24T06:24:14.908Z,43.17
2023-11-24T06:29:23.124Z,31.73
2023-11-24T06:34:28.839Z,32.58
2023-11-24T06:39:33.371Z,49.25
2023-11-24T06:44:41.304Z,54.15
2023-11-24T06:49:45.611Z,47.45
2023-11-24T06:54:50.152Z,44.65
2023-11-24T06:59:56.972Z,41.83
2023-11-24T07:05:01.306Z,78.85
2023-11-24T07:10:06.916Z,60.10
2023-11-24T07:15:13.828Z,41.15
2023-11-24T07:20:19.253Z,28.45
2023-11-24T07:25:23.444Z,26.48
2023-11-24T07:30:32.388Z,33.97
2023-11-24T07:35:36.555Z,37.22
2023-11-24T07:40:40.825Z,17.42
2023-11-24T07:45:52.553Z,21.00
2023-11-24T07:50:56.626Z,27.33
2023-11-24T07:56:01.198Z,31.17
2023-11-24T08:01:08.922Z,30.02
2023-11-24T08:06:16.175Z,26.05
2023-11-24T08:11:20.882Z,33.28
2023-11-24T08:16:27.801Z,27.20
2023-11-24T08:21:35.774Z,31.77
2023-11-24T08:26:40.667Z,24.48
2023-11-24T08:31:51.440Z,19.15
2023-11-24T08:36:56.351Z,15.80
2023-11-24T08:42:00.647Z,16.95
2023-11-24T08:47:07.498Z,13.00
2023-11-24T08:52:12.064Z,12.30
2023-11-24T08:57:17.115Z,14.43
2023-11-24T09:02:23.514Z,16.45
2023-11-24T09:07:31.452Z,16.15
2023-11-24T09:12:36.057Z,15.40
2023-11-24T09:17:41.870Z,16.60
2023-11-24T09:22:46.618Z,15.18
2023-11-24T09:27:50.721Z,14.90
2023-11-24T09:32:56.634Z,15.18
2023-11-24T09:38:01.037Z,20.38
2023-11-24T09:43:06.455Z,19.95
2023-11-24T09:48:16.092Z,21.33
2023-11-24T09:53:20.828Z,18.75
2023-11-24T09:58:27.113Z,16.75
2023-11-24T10:03:32.949Z,16.00
2023-11-24T10:08:38.097Z,16.58
2023-11-24T10:13:43.094Z,12.20
2023-11-24T10:18:48.611Z,11.73
2023-11-24T10:23:52.718Z,15.00
2023-11-24T10:28:58.817Z,14.95
2023-11-24T10:34:05.649Z,11.65
2023-11-24T10:39:13.411Z,10.70
2023-11-24T10:44:20.540Z,25.48
2023-11-24T10:49:35.969Z,11.18
2023-11-24T10:54:46.413Z,9.77
2023-11-24T10:59:52.456Z,6.82
2023-11-24T11:05:08.508Z,9.68
2023-11-24T11:10:15.263Z,8.18
2023-11-24T11:15:26.442Z,15.75
2023-11-24T11:20:38.713Z,11.00
2023-11-24T11:25:46.008Z,11.55
2023-11-24T11:30:51.457Z,13.93
2023-11-24T11:36:07.069Z,22.65
2023-11-24T11:41:11.726Z,29.23
2023-11-24T11:46:16.745Z,29.52
2023-11-24T11:51:23.671Z,16.85
2023-11-24T11:56:28.315Z,10.82
2023-11-24T12:01:36.862Z,11.60
2023-11-24T12:06:42.554Z,11.65
2023-11-24T12:11:48.588Z,15.38
2023-11-24T12:16:55.029Z,8.65
2023-11-24T12:22:03.661Z,10.77
2023-11-24T12:27:09.887Z,10.18
2023-11-24T12:32:15.454Z,7.85
2023-11-24T12:37:25.556Z,11.13
2023-11-24T12:42:31.831Z,8.95
2023-11-24T12:47:42.227Z,9.23
2023-11-24T12:52:54.301Z,8.88
2023-11-24T12:58:03.156Z,7.30
2023-11-24T13:03:10.542Z,7.05
2023-11-24T13:08:22.409Z,6.80
2023-11-24T13:13:29.598Z,10.20
2023-11-24T13:18:35.704Z,12.57
2023-11-24T13:23:42.440Z,17.15
2023-11-24T13:28:46.665Z,16.00
2023-11-24T13:33:50.724Z,19.15
2023-11-24T13:39:00.482Z,14.63
2023-11-24T13:44:05.455Z,15.25
2023-11-24T13:49:11.047Z,12.95
2023-11-24T13:54:17.164Z,15.60
2023-11-24T13:59:22.746Z,20.30
2023-11-24T14:04:28.336Z,24.85
2023-11-24T14:09:35.127Z,23.15
2023-11-24T14:14:39.560Z,10.75
2023-11-24T14:19:45.207Z,16.50
2023-11-24T14:24:50.929Z,18.83
2023-11-24T14:29:55.317Z,13.48
2023-11-24T14:35:01.178Z,15.45
2023-11-24T14:40:19.317Z,25.63
2023-11-24T14:45:27.233Z,18.08
2023-11-24T14:50:32.984Z,26.15
2023-11-24T14:55:38.386Z,58.70
2023-11-24T15:00:42.748Z,43.92
2023-11-24T15:05:53.632Z,38.40
2023-11-24T15:11:05.117Z,24.55
2023-11-24T15:16:13.643Z,31.83
2023-11-24T15:21:29.567Z,34.85
2023-11-24T15:26:37.415Z,30.83
2023-11-24T15:31:42.954Z,19.75
2023-11-24T15:36:47.327Z,25.58
2023-11-24T15:41:53.331Z,42.30
2023-11-24T15:46:57.562Z,39.75
2023-11-24T15:52:08.840Z,39.75
2023-11-24T15:57:20.007Z,33.63
2023-11-24T16:02:27.534Z,44.88
2023-11-24T16:07:38.386Z,63.40
2023-11-24T16:12:48.356Z,66.03
2023-11-24T16:17:52.990Z,72.95
2023-11-24T16:22:57.481Z,77.90
2023-11-24T16:28:04.484Z,90.70
2023-11-24T16:33:13.776Z,90.90
2023-11-24T16:38:20.884Z,74.90
2023-11-24T16:43:26.682Z,93.68
2023-11-24T16:48:30.739Z,155.40
2023-11-24T16:53:34.710Z,109.55
2023-11-24T16:58:40.188Z,79.90
2023-11-24T17:03:44.943Z,55.65
2023-11-24T17:08:49.192Z,46.97
2023-11-24T17:13:55.477Z,40.67
2023-11-24T17:19:02.417Z,25.60
2023-11-24T17:24:07.222Z,28.92
2023-11-24T17:29:16.713Z,36.08
2023-11-24T17:34:21.464Z,44.50
2023-11-24T17:39:25.681Z,37.95
2023-11-24T17:44:33.508Z,38.30
2023-11-24T17:49:38.697Z,41.08
2023-11-24T17:54:42.830Z,34.40
2023-11-24T17:59:51.182Z,47.58
2023-11-24T18:04:55.306Z,40.13
2023-11-24T18:09:59.399Z,33.25
2023-11-24T18:15:06.172Z,37.28
2023-11-24T18:20:14.602Z,29.40
2023-11-24T18:30:25.853Z,31.33
2023-11-24T18:35:30.154Z,27.15
2023-11-24T18:40:34.898Z,26.52
2023-11-24T18:45:40.292Z,35.05
2023-11-24T18:50:46.884Z,34.30
2023-11-24T18:55:50.871Z,41.72
2023-11-24T19:00:56.346Z,35.90
2023-11-24T19:06:02.694Z,29.63
2023-11-24T19:11:07.551Z,23.23
2023-11-24T19:16:14.261Z,41.45
2023-11-24T19:21:19.583Z,57.28
2023-11-24T19:26:24.552Z,72.47
2023-11-24T19:31:30.420Z,54.60
2023-11-24T19:36:34.552Z,30.23
2023-11-24T19:41:38.654Z,46.17
2023-11-24T19:46:44.827Z,62.38
2023-11-24T19:51:49.059Z,63.03
2023-11-24T19:56:53.006Z,28.80
2023-11-24T20:01:59.984Z,34.30
2023-11-24T20:07:05.049Z,22.92
2023-11-24T20:12:10.810Z,22.52
2023-11-24T20:17:17.610Z,28.60
2023-11-24T20:22:21.737Z,29.83
2023-11-24T20:27:26.083Z,49.83
2023-11-24T20:32:33.410Z,43.30
2023-11-24T20:37:39.888Z,55.45
2023-11-24T20:42:44.156Z,55.38
2023-11-24T20:47:50.646Z,51.30
2023-11-24T20:52:55.116Z,25.65
2023-11-24T20:57:59.341Z,30.65
2023-11-24T21:03:05.264Z,27.10
2023-11-24T21:08:09.447Z,26.08
2023-11-24T21:13:13.624Z,12.85
2023-11-24T21:18:19.456Z,12.50
2023-11-24T21:23:24.354Z,11.50
2023-11-24T21:28:28.603Z,11.70
2023-11-24T21:33:34.159Z,13.32
2023-11-24T21:38:38.352Z,15.30
2023-11-24T21:43:42.436Z,14.80
2023-11-24T21:48:48.765Z,17.65
2023-11-24T21:53:52.845Z,15.18
2023-11-24T21:58:57.117Z,18.67
2023-11-24T22:04:04.437Z,16.55
2023-11-24T22:09:09.081Z,13.43
2023-11-24T22:14:13.233Z,13.55
2023-11-24T22:19:20.460Z,11.35
2023-11-24T22:24:25.171Z,11.07
2023-11-24T22:29:29.498Z,10.40
2023-11-24T22:34:34.934Z,10.63
2023-11-24T22:39:40.575Z,9.63
2023-11-24T22:44:46.356Z,11.23
2023-11-24T22:49:52.910Z,10.48
2023-11-24T22:54:57.171Z,8.98
2023-11-24T23:00:02.724Z,8.65
2023-11-24T23:05:09.869Z,10.88
2023-11-24T23:10:18.862Z,18.85
2023-11-24T23:15:25.619Z,23.83
2023-11-24T23:20:30.925Z,15.40
2023-11-24T23:25:34.978Z,11.25
2023-11-24T23:30:40.125Z,17.98
2023-11-24T23:35:47.073Z,22.05
2023-11-24T23:40:52.664Z,27.20
2023-11-24T23:45:56.732Z,25.02
2023-11-24T23:51:02.140Z,23.60
2023-11-24T23:56:07.192Z,27.30
